createdAt,value
2018-09-23T00:00:29.407Z,5.34
2018-09-23T00:01:29.881Z,5.09
2018-09-23T00:02:30.350Z,5.02
2018-09-23T00:03:30.817Z,5.17
2018-09-23T00:04:31.288Z,5.06
2018-09-23T00:05:31.761Z,5.14
2018-09-23T00:06:32.228Z,5.09
2018-09-23T00:07:32.700Z,5.20
2018-09-23T00:08:33.169Z,5.28
2018-09-23T00:09:33.640Z,5.25
2018-09-23T00:10:34.111Z,5.32
2018-09-23T00:11:34.581Z,5.26
2018-09-23T00:12:35.050Z,5.33
2018-09-23T00:13:35.522Z,5.32
2018-09-23T00:14:35.991Z,5.22
2018-09-23T00:15:36.464Z,5.11
2018-09-23T00:16:36.936Z,5.10
2018-09-23T00:17:37.419Z,5.26
2018-09-23T00:18:37.876Z,5.22
2018-09-23T00:19:38.351Z,5.18
2018-09-23T00:20:38.822Z,5.22
2018-09-23T00:21:39.291Z,5.18
2018-09-23T00:22:39.968Z,5.12
2018-09-23T00:23:40.235Z,5.14
2018-09-23T00:24:40.706Z,5.09
2018-09-23T00:25:41.179Z,5.14
2018-09-23T00:26:41.653Z,5.17
2018-09-23T00:27:42.131Z,5.25
2018-09-23T00:28:42.597Z,5.18
2018-09-23T00:29:43.074Z,5.12
2018-09-23T00:30:43.543Z,5.22
2018-09-23T00:31:44.019Z,5.30
2018-09-23T00:32:44.489Z,5.22
2018-09-23T00:33:44.962Z,5.29
2018-09-23T00:34:45.436Z,5.22
2018-09-23T00:35:45.912Z,5.15
2018-09-23T00:36:46.382Z,5.19
2018-09-23T00:37:46.858Z,5.26
2018-09-23T00:38:47.335Z,5.27
2018-09-23T00:39:47.807Z,5.17
2018-09-23T00:40:48.278Z,5.21
2018-09-23T00:41:48.752Z,5.26
2018-09-23T00:42:49.224Z,5.34
2018-09-23T00:43:49.698Z,5.39
2018-09-23T00:44:50.173Z,5.33
2018-09-23T00:45:50.646Z,5.36
2018-09-23T00:46:51.120Z,5.30
2018-09-23T00:47:51.591Z,5.33
2018-09-23T00:48:52.062Z,5.35
2018-09-23T00:49:52.539Z,5.36
2018-09-23T00:50:53.008Z,5.31
2018-09-23T00:51:53.484Z,5.28
2018-09-23T00:52:53.957Z,5.47
2018-09-23T00:53:54.425Z,5.49
2018-09-23T00:54:54.896Z,5.44
2018-09-23T00:55:55.367Z,5.52
2018-09-23T00:56:55.840Z,5.53
2018-09-23T00:57:56.309Z,5.48
2018-09-23T00:58:56.781Z,5.40
2018-09-23T00:59:57.253Z,5.59
2018-09-23T01:00:57.721Z,5.66
2018-09-23T01:01:58.192Z,5.80
2018-09-23T01:02:58.664Z,5.74
2018-09-23T01:03:59.134Z,5.65
2018-09-23T01:04:59.603Z,5.69
2018-09-23T01:06:00.076Z,5.64
2018-09-23T01:07:00.544Z,5.60
2018-09-23T01:08:01.017Z,5.61
2018-09-23T01:09:01.487Z,5.64
2018-09-23T01:10:01.982Z,5.71
2018-09-23T01:11:02.424Z,5.68
2018-09-23T01:12:02.896Z,5.69
2018-09-23T01:13:03.364Z,5.61
2018-09-23T01:14:03.837Z,5.56
2018-09-23T01:15:04.305Z,5.62
2018-09-23T01:16:04.776Z,5.62
2018-09-23T01:17:05.243Z,5.65
2018-09-23T01:18:05.715Z,5.82
2018-09-23T01:19:06.185Z,5.73
2018-09-23T01:20:06.655Z,5.64
2018-09-23T01:21:07.125Z,5.56
2018-09-23T01:22:07.596Z,5.70
2018-09-23T01:23:08.068Z,5.78
2018-09-23T01:24:08.538Z,5.74
2018-09-23T01:25:09.008Z,5.66
2018-09-23T01:26:09.480Z,5.59
2018-09-23T01:27:09.954Z,5.62
2018-09-23T01:28:10.422Z,5.73
2018-09-23T01:29:10.899Z,5.74
2018-09-23T01:30:11.365Z,5.70
2018-09-23T01:31:11.839Z,5.66
2018-09-23T01:32:12.310Z,5.56
2018-09-23T01:33:12.781Z,5.60
2018-09-23T01:34:13.254Z,5.68
2018-09-23T01:35:13.726Z,5.70
2018-09-23T01:36:14.200Z,5.71
2018-09-23T01:37:14.721Z,5.74
2018-09-23T01:38:15.145Z,5.74
2018-09-23T01:39:15.617Z,5.75
2018-09-23T01:40:16.089Z,5.77
2018-09-23T01:41:16.562Z,5.76
2018-09-23T01:42:17.035Z,5.78
2018-09-23T01:43:17.508Z,5.70
2018-09-23T01:44:17.981Z,5.64
2018-09-23T01:45:18.455Z,5.58
2018-09-23T01:46:18.930Z,5.62
2018-09-23T01:47:19.401Z,5.74
2018-09-23T01:48:19.876Z,5.77
2018-09-23T01:49:20.352Z,5.72
2018-09-23T01:50:20.823Z,5.79
2018-09-23T01:51:21.302Z,5.82
2018-09-23T01:52:21.773Z,5.78
2018-09-23T01:53:22.244Z,5.80
2018-09-23T01:54:22.721Z,5.77
2018-09-23T01:55:23.198Z,5.78
2018-09-23T01:56:23.669Z,5.79
2018-09-23T01:57:24.139Z,5.80
2018-09-23T01:58:24.614Z,5.83
2018-09-23T01:59:25.092Z,5.82
2018-09-23T02:00:25.562Z,5.84
2018-09-23T02:01:26.034Z,5.93
2018-09-23T02:02:26.505Z,5.89
2018-09-23T02:03:26.978Z,5.82
2018-09-23T02:04:27.452Z,5.78
2018-09-23T02:05:27.925Z,5.79
2018-09-23T02:06:28.395Z,5.81
2018-09-23T02:07:28.867Z,5.81
2018-09-23T02:08:29.339Z,5.85
2018-09-23T02:09:29.811Z,5.94
2018-09-23T02:10:30.281Z,5.92
2018-09-23T02:11:30.753Z,5.86
2018-09-23T02:12:31.226Z,5.91
2018-09-23T02:13:31.693Z,5.90
2018-09-23T02:14:32.165Z,5.86
2018-09-23T02:15:32.636Z,5.85
2018-09-23T02:16:33.109Z,5.87
2018-09-23T02:17:33.576Z,5.88
2018-09-23T02:18:34.048Z,5.85
2018-09-23T02:19:34.519Z,5.98
2018-09-23T02:20:34.987Z,5.94
2018-09-23T02:21:35.457Z,5.88
2018-09-23T02:22:35.927Z,5.86
2018-09-23T02:23:36.399Z,5.88
2018-09-23T02:24:36.877Z,5.91
2018-09-23T02:25:37.401Z,5.92
2018-09-23T02:26:37.808Z,5.92
2018-09-23T02:27:38.285Z,5.93
2018-09-23T02:28:38.750Z,5.90
2018-09-23T02:29:39.220Z,5.92
2018-09-23T02:30:39.702Z,5.88
2018-09-23T02:31:40.160Z,5.92
2018-09-23T02:32:40.635Z,5.92
2018-09-23T02:33:41.108Z,5.95
2018-09-23T02:34:41.573Z,5.93
2018-09-23T02:35:42.046Z,5.95
2018-09-23T02:36:42.514Z,5.95
2018-09-23T02:37:42.987Z,5.92
2018-09-23T02:38:43.458Z,5.92
2018-09-23T02:39:43.931Z,5.95
2018-09-23T02:40:44.405Z,5.98
2018-09-23T02:41:44.873Z,5.96
2018-09-23T02:42:45.344Z,5.97
2018-09-23T02:43:45.816Z,5.97
2018-09-23T02:44:46.287Z,6.01
2018-09-23T02:45:46.760Z,5.98
2018-09-23T02:46:47.236Z,5.96
2018-09-23T02:47:47.907Z,5.96
2018-09-23T02:48:48.179Z,5.98
2018-09-23T02:49:48.852Z,5.97
2018-09-23T02:50:49.124Z,6.02
2018-09-23T02:51:49.596Z,5.98
2018-09-23T02:52:50.072Z,5.98
2018-09-23T02:53:50.543Z,5.97
2018-09-23T02:54:51.016Z,5.98
2018-09-23T02:55:51.492Z,5.98
2018-09-23T02:56:51.963Z,5.96
2018-09-23T02:57:52.437Z,5.98
2018-09-23T02:58:52.911Z,6.00
2018-09-23T02:59:53.386Z,5.98
2018-09-23T03:00:53.860Z,5.98
2018-09-23T03:01:54.332Z,6.00
2018-09-23T03:02:54.813Z,5.98
2018-09-23T03:03:55.282Z,6.02
2018-09-23T03:04:55.757Z,6.03
2018-09-23T03:05:56.231Z,5.98
2018-09-23T03:06:56.702Z,5.97
2018-09-23T03:07:57.175Z,6.00
2018-09-23T03:08:57.650Z,6.02
2018-09-23T03:09:58.123Z,6.01
2018-09-23T03:10:58.594Z,6.00
2018-09-23T03:11:59.070Z,6.00
2018-09-23T03:12:59.542Z,6.01
2018-09-23T03:14:00.013Z,6.03
2018-09-23T03:15:00.488Z,6.04
2018-09-23T03:16:00.960Z,6.00
2018-09-23T03:17:01.432Z,6.00
2018-09-23T03:18:01.902Z,6.02
2018-09-23T03:19:02.376Z,6.02
2018-09-23T03:20:02.848Z,6.02
2018-09-23T03:21:03.320Z,6.04
2018-09-23T03:22:03.790Z,6.04
2018-09-23T03:23:04.262Z,6.05
2018-09-23T03:24:04.734Z,6.04
2018-09-23T03:25:05.206Z,6.04
2018-09-23T03:26:05.674Z,6.05
2018-09-23T03:27:06.145Z,6.08
2018-09-23T03:28:06.616Z,6.04
2018-09-23T03:29:07.087Z,6.05
2018-09-23T03:30:07.556Z,6.05
2018-09-23T03:31:08.027Z,6.04
2018-09-23T03:32:08.496Z,6.02
2018-09-23T03:33:08.967Z,6.02
2018-09-23T03:34:09.436Z,6.02
2018-09-23T03:35:09.907Z,6.00
2018-09-23T03:36:10.377Z,6.05
2018-09-23T03:37:10.848Z,6.05
2018-09-23T03:38:11.519Z,6.06
2018-09-23T03:39:11.786Z,6.06
2018-09-23T03:40:12.259Z,6.04
2018-09-23T03:41:12.728Z,6.08
2018-09-23T03:42:13.199Z,6.08
2018-09-23T03:43:13.673Z,6.06
2018-09-23T03:44:14.139Z,6.06
2018-09-23T03:45:14.612Z,6.06
2018-09-23T03:46:15.085Z,6.04
2018-09-23T03:47:15.553Z,6.06
2018-09-23T03:48:16.022Z,6.04
2018-09-23T03:49:16.496Z,6.06
2018-09-23T03:50:16.964Z,6.05
2018-09-23T03:51:17.438Z,6.04
2018-09-23T03:52:17.914Z,6.06
2018-09-23T03:53:18.380Z,6.07
2018-09-23T03:54:18.855Z,6.04
2018-09-23T03:55:19.324Z,6.05
2018-09-23T03:56:19.796Z,6.05
2018-09-23T03:57:20.268Z,6.07
2018-09-23T03:58:20.742Z,6.07
2018-09-23T03:59:21.214Z,6.08
2018-09-23T04:00:21.685Z,6.09
2018-09-23T04:01:22.159Z,6.14
2018-09-23T04:02:22.633Z,6.17
2018-09-23T04:03:23.104Z,6.18
2018-09-23T04:04:23.581Z,6.14
2018-09-23T04:05:24.052Z,6.11
2018-09-23T04:06:24.525Z,6.10
2018-09-23T04:07:24.999Z,6.08
2018-09-23T04:08:25.471Z,6.05
2018-09-23T04:09:25.949Z,6.10
2018-09-23T04:10:26.418Z,6.09
2018-09-23T04:11:26.893Z,6.10
2018-09-23T04:12:27.368Z,6.10
2018-09-23T04:13:27.841Z,6.08
2018-09-23T04:14:28.313Z,6.10
2018-09-23T04:15:28.789Z,6.08
2018-09-23T04:16:29.266Z,6.07
2018-09-23T04:17:29.736Z,6.12
2018-09-23T04:18:30.211Z,6.11
2018-09-23T04:19:30.684Z,6.12
2018-09-23T04:20:31.158Z,6.12
2018-09-23T04:21:31.630Z,6.11
2018-09-23T04:22:32.103Z,6.11
2018-09-23T04:23:32.576Z,6.12
2018-09-23T04:24:33.048Z,6.12
2018-09-23T04:25:33.526Z,6.10
2018-09-23T04:26:33.995Z,6.14
2018-09-23T04:27:34.470Z,6.14
2018-09-23T04:28:34.942Z,6.12
2018-09-23T04:29:35.412Z,6.12
2018-09-23T04:30:35.883Z,6.10
2018-09-23T04:31:36.355Z,6.12
2018-09-23T04:32:36.827Z,6.10
2018-09-23T04:33:37.297Z,6.08
2018-09-23T04:34:37.770Z,6.08
2018-09-23T04:35:38.243Z,6.09
2018-09-23T04:36:38.715Z,6.11
2018-09-23T04:37:39.183Z,6.10
2018-09-23T04:38:39.653Z,6.08
2018-09-23T04:39:40.128Z,6.10
2018-09-23T04:40:40.593Z,6.10
2018-09-23T04:41:41.065Z,6.08
2018-09-23T04:42:41.533Z,6.09
2018-09-23T04:43:42.005Z,6.08
2018-09-23T04:44:42.476Z,6.09
2018-09-23T04:45:42.947Z,6.09
2018-09-23T04:46:43.418Z,6.10
2018-09-23T04:47:43.886Z,6.08
2018-09-23T04:48:44.356Z,6.08
2018-09-23T04:49:44.827Z,6.08
2018-09-23T04:50:45.295Z,6.08
2018-09-23T04:51:45.768Z,6.08
2018-09-23T04:52:46.237Z,6.10
2018-09-23T04:53:46.708Z,6.08
2018-09-23T04:54:47.178Z,6.10
2018-09-23T04:55:47.650Z,6.08
2018-09-23T04:56:48.124Z,6.08
2018-09-23T04:57:48.591Z,6.10
2018-09-23T04:58:49.061Z,6.08
2018-09-23T04:59:49.735Z,6.09
2018-09-23T05:00:50.005Z,6.04
2018-09-23T05:01:50.476Z,6.06
2018-09-23T05:02:50.949Z,6.04
2018-09-23T05:03:51.420Z,6.06
2018-09-23T05:04:51.890Z,6.05
2018-09-23T05:05:52.363Z,6.04
2018-09-23T05:06:52.834Z,6.04
2018-09-23T05:07:53.308Z,6.04
2018-09-23T05:08:53.777Z,6.04
2018-09-23T05:09:54.252Z,6.06
2018-09-23T05:10:54.727Z,6.04
2018-09-23T05:11:55.196Z,6.05
2018-09-23T05:12:55.670Z,6.08
2018-09-23T05:13:56.143Z,6.04
2018-09-23T05:14:56.614Z,6.05
2018-09-23T05:15:57.089Z,6.06
2018-09-23T05:16:57.561Z,6.04
2018-09-23T05:17:58.036Z,6.04
2018-09-23T05:18:58.559Z,6.05
2018-09-23T05:19:58.983Z,6.04
2018-09-23T05:20:59.455Z,6.04
2018-09-23T05:21:59.931Z,6.02
2018-09-23T05:23:00.405Z,6.04
2018-09-23T05:24:00.878Z,6.02
2018-09-23T05:25:01.360Z,6.04
2018-09-23T05:26:01.827Z,6.02
2018-09-23T05:27:02.300Z,6.02
2018-09-23T05:28:02.772Z,6.00
2018-09-23T05:29:03.247Z,6.02
2018-09-23T05:30:03.721Z,6.01
2018-09-23T05:31:04.238Z,6.02
2018-09-23T05:32:04.669Z,6.01
2018-09-23T05:33:05.143Z,6.02
2018-09-23T05:34:05.614Z,6.00
2018-09-23T05:35:06.089Z,6.00
2018-09-23T05:36:06.562Z,5.99
2018-09-23T05:37:07.034Z,5.98
2018-09-23T05:38:07.508Z,5.97
2018-09-23T05:39:07.979Z,5.94
2018-09-23T05:40:08.452Z,5.96
2018-09-23T05:41:08.926Z,5.96
2018-09-23T05:42:09.398Z,5.95
2018-09-23T05:43:09.866Z,5.95
2018-09-23T05:44:10.340Z,5.96
2018-09-23T05:45:10.811Z,5.94
2018-09-23T05:46:11.283Z,5.94
2018-09-23T05:47:11.753Z,5.95
2018-09-23T05:48:12.223Z,5.94
2018-09-23T05:49:12.694Z,5.98
2018-09-23T05:50:13.166Z,5.96
2018-09-23T05:51:13.636Z,5.95
2018-09-23T05:52:14.107Z,5.96
2018-09-23T05:53:14.619Z,5.95
2018-09-23T05:54:15.051Z,5.94
2018-09-23T05:55:15.523Z,5.92
2018-09-23T05:56:15.991Z,5.89
2018-09-23T05:57:16.461Z,5.94
2018-09-23T05:58:16.930Z,5.95
2018-09-23T05:59:17.398Z,5.94
2018-09-23T06:00:17.868Z,5.92
2018-09-23T06:01:18.339Z,5.94
2018-09-23T06:02:18.811Z,5.93
2018-09-23T06:03:19.281Z,5.93
2018-09-23T06:04:19.752Z,5.94
2018-09-23T06:05:20.223Z,5.96
2018-09-23T06:06:20.694Z,5.94
2018-09-23T06:07:21.161Z,5.94
2018-09-23T06:08:21.633Z,5.94
2018-09-23T06:09:22.107Z,5.94
2018-09-23T06:10:22.578Z,5.94
2018-09-23T06:11:23.050Z,5.96
2018-09-23T06:12:23.520Z,5.95
2018-09-23T06:13:23.991Z,5.95
2018-09-23T06:14:24.461Z,5.95
2018-09-23T06:15:24.933Z,5.95
2018-09-23T06:16:25.406Z,5.94
2018-09-23T06:17:25.879Z,5.94
2018-09-23T06:18:26.423Z,5.93
2018-09-23T06:19:26.823Z,5.91
2018-09-23T06:20:27.296Z,5.94
2018-09-23T06:21:27.773Z,5.92
2018-09-23T06:22:28.243Z,5.91
2018-09-23T06:23:28.713Z,5.91
2018-09-23T06:24:29.188Z,5.92
2018-09-23T06:25:29.662Z,5.94
2018-09-23T06:26:30.133Z,5.92
2018-09-23T06:27:30.607Z,5.88
2018-09-23T06:28:31.081Z,5.87
2018-09-23T06:29:31.556Z,5.89
2018-09-23T06:30:32.028Z,5.90
2018-09-23T06:31:32.502Z,5.92
2018-09-23T06:32:32.975Z,5.92
2018-09-23T06:33:33.450Z,5.88
2018-09-23T06:34:33.925Z,5.87
2018-09-23T06:35:34.399Z,5.88
2018-09-23T06:36:34.875Z,5.91
2018-09-23T06:37:35.348Z,5.91
2018-09-23T06:38:35.821Z,5.92
2018-09-23T06:39:36.292Z,5.93
2018-09-23T06:40:36.772Z,5.92
2018-09-23T06:41:37.242Z,5.89
2018-09-23T06:42:37.722Z,5.94
2018-09-23T06:43:38.188Z,5.90
2018-09-23T06:44:38.662Z,5.87
2018-09-23T06:45:39.148Z,5.88
2018-09-23T06:46:39.608Z,5.88
2018-09-23T06:47:40.081Z,5.92
2018-09-23T06:48:40.551Z,5.90
2018-09-23T06:49:41.024Z,5.90
2018-09-23T06:50:41.496Z,5.91
2018-09-23T06:51:41.969Z,5.90
2018-09-23T06:52:42.440Z,5.91
2018-09-23T06:53:42.911Z,5.91
2018-09-23T06:54:43.386Z,5.92
2018-09-23T06:55:43.856Z,5.92
2018-09-23T06:56:44.329Z,5.92
2018-09-23T06:57:44.797Z,5.90
2018-09-23T06:58:45.273Z,5.90
2018-09-23T06:59:45.737Z,5.92
2018-09-23T07:00:46.209Z,5.92
2018-09-23T07:01:46.678Z,5.93
2018-09-23T07:02:47.158Z,5.94
2018-09-23T07:03:47.619Z,5.91
2018-09-23T07:04:48.115Z,5.91
2018-09-23T07:05:48.561Z,5.92
2018-09-23T07:06:49.031Z,5.92
2018-09-23T07:07:49.502Z,5.91
2018-09-23T07:08:49.969Z,5.92
2018-09-23T07:09:50.445Z,5.91
2018-09-23T07:10:50.913Z,5.92
2018-09-23T07:11:51.382Z,5.92
2018-09-23T07:12:51.850Z,5.92
2018-09-23T07:13:52.322Z,5.91
2018-09-23T07:14:52.792Z,5.89
2018-09-23T07:15:53.261Z,5.91
2018-09-23T07:16:53.734Z,5.91
2018-09-23T07:17:54.205Z,5.90
2018-09-23T07:18:54.877Z,5.92
2018-09-23T07:19:55.145Z,5.94
2018-09-23T07:20:55.621Z,5.90
2018-09-23T07:21:56.088Z,5.91
2018-09-23T07:22:56.560Z,5.94
2018-09-23T07:23:57.114Z,5.94
2018-09-23T07:24:57.504Z,5.91
2018-09-23T07:25:57.974Z,5.93
2018-09-23T07:26:58.447Z,5.92
2018-09-23T07:27:58.919Z,5.88
2018-09-23T07:28:59.390Z,5.91
2018-09-23T07:29:59.882Z,5.89
2018-09-23T07:31:00.335Z,5.91
2018-09-23T07:32:00.806Z,5.93
2018-09-23T07:33:01.284Z,5.91
2018-09-23T07:34:01.753Z,5.94
2018-09-23T07:35:02.227Z,5.91
2018-09-23T07:36:02.701Z,5.94
2018-09-23T07:37:03.276Z,5.92
2018-09-23T07:38:03.646Z,5.88
2018-09-23T07:39:04.119Z,5.93
2018-09-23T07:40:04.807Z,5.91
2018-09-23T07:41:05.066Z,5.94
2018-09-23T07:42:05.543Z,5.86
2018-09-23T07:43:06.017Z,5.84
2018-09-23T07:44:06.488Z,5.83
2018-09-23T07:45:06.963Z,5.80
2018-09-23T07:46:07.437Z,5.82
2018-09-23T07:47:07.911Z,5.81
2018-09-23T07:48:08.453Z,5.86
2018-09-23T07:49:08.857Z,5.86
2018-09-23T07:50:09.332Z,5.91
2018-09-23T07:51:09.806Z,5.88
2018-09-23T07:52:10.280Z,5.88
2018-09-23T07:53:10.752Z,5.90
2018-09-23T07:54:11.226Z,5.93
2018-09-23T07:55:11.699Z,5.91
2018-09-23T07:56:12.172Z,5.92
2018-09-23T07:57:12.649Z,5.88
2018-09-23T07:58:13.118Z,5.90
2018-09-23T07:59:13.592Z,5.90
2018-09-23T08:00:14.060Z,5.89
2018-09-23T08:01:14.534Z,5.90
2018-09-23T08:02:15.008Z,5.86
2018-09-23T08:03:15.478Z,5.87
2018-09-23T08:04:15.949Z,5.88
2018-09-23T08:05:16.456Z,5.90
2018-09-23T08:06:16.892Z,5.88
2018-09-23T08:07:17.364Z,5.86
2018-09-23T08:08:17.833Z,5.85
2018-09-23T08:09:18.307Z,5.84
2018-09-23T08:10:18.775Z,5.84
2018-09-23T08:11:19.246Z,5.86
2018-09-23T08:12:19.755Z,5.86
2018-09-23T08:13:20.269Z,5.86
2018-09-23T08:14:20.984Z,5.86
2018-09-23T08:15:21.127Z,5.85
2018-09-23T08:16:21.598Z,5.87
2018-09-23T08:17:22.107Z,5.86
2018-09-23T08:18:22.539Z,5.86
2018-09-23T08:19:23.085Z,5.86
2018-09-23T08:20:23.570Z,5.87
2018-09-23T08:21:23.987Z,5.87
2018-09-23T08:22:24.418Z,5.87
2018-09-23T08:23:24.890Z,5.86
2018-09-23T08:24:25.358Z,5.88
2018-09-23T08:25:25.892Z,5.90
2018-09-23T08:26:26.378Z,5.88
2018-09-23T08:27:26.771Z,5.90
2018-09-23T08:28:27.241Z,5.90
2018-09-23T08:29:27.712Z,5.90
2018-09-23T08:30:28.189Z,5.91
2018-09-23T08:31:28.655Z,5.90
2018-09-23T08:32:29.132Z,5.91
2018-09-23T08:33:29.598Z,5.91
2018-09-23T08:34:30.072Z,5.91
2018-09-23T08:35:30.542Z,5.92
2018-09-23T08:36:31.012Z,5.91
2018-09-23T08:37:31.555Z,5.92
2018-09-23T08:38:31.958Z,5.90
2018-09-23T08:39:32.431Z,5.94
2018-09-23T08:40:32.902Z,5.92
2018-09-23T08:41:33.377Z,5.94
2018-09-23T08:42:33.847Z,5.93
2018-09-23T08:43:34.322Z,5.92
2018-09-23T08:44:34.792Z,5.90
2018-09-23T08:45:35.266Z,5.90
2018-09-23T08:46:35.743Z,5.94
2018-09-23T08:47:36.214Z,5.94
2018-09-23T08:48:36.686Z,5.93
2018-09-23T08:49:37.162Z,5.94
2018-09-23T08:50:37.634Z,5.96
2018-09-23T08:51:38.131Z,5.96
2018-09-23T08:52:38.588Z,5.94
2018-09-23T08:53:39.061Z,5.96
2018-09-23T08:54:39.529Z,5.96
2018-09-23T08:55:40.011Z,5.98
2018-09-23T08:56:40.479Z,5.98
2018-09-23T08:57:41.016Z,5.96
2018-09-23T08:58:41.425Z,6.00
2018-09-23T08:59:41.900Z,6.00
2018-09-23T09:00:42.373Z,5.99
2018-09-23T09:01:42.846Z,6.01
2018-09-23T09:02:43.321Z,6.00
2018-09-23T09:03:43.834Z,6.00
2018-09-23T09:04:44.264Z,6.02
2018-09-23T09:05:44.740Z,6.02
2018-09-23T09:06:45.211Z,6.04
2018-09-23T09:07:45.684Z,6.04
2018-09-23T09:08:46.155Z,6.04
2018-09-23T09:09:46.627Z,6.04
2018-09-23T09:10:47.100Z,6.04
2018-09-23T09:11:47.606Z,6.05
2018-09-23T09:12:48.043Z,6.06
2018-09-23T09:13:48.515Z,6.05
2018-09-23T09:14:48.987Z,6.04
2018-09-23T09:15:49.460Z,6.06
2018-09-23T09:16:49.933Z,6.07
2018-09-23T09:17:50.400Z,6.08
2018-09-23T09:18:50.929Z,6.10
2018-09-23T09:19:51.342Z,6.04
2018-09-23T09:20:51.816Z,6.02
2018-09-23T09:21:52.284Z,6.06
2018-09-23T09:22:52.753Z,6.08
2018-09-23T09:23:53.224Z,6.08
2018-09-23T09:24:53.692Z,6.08
2018-09-23T09:25:54.163Z,6.09
2018-09-23T09:26:54.671Z,6.10
2018-09-23T09:27:55.105Z,6.10
2018-09-23T09:28:55.573Z,6.12
2018-09-23T09:29:56.044Z,6.10
2018-09-23T09:30:56.515Z,6.10
2018-09-23T09:31:56.987Z,6.06
2018-09-23T09:32:57.454Z,6.10
2018-09-23T09:33:57.929Z,6.11
2018-09-23T09:34:58.397Z,6.10
2018-09-23T09:35:58.867Z,6.10
2018-09-23T09:36:59.338Z,6.08
2018-09-23T09:37:59.809Z,6.06
2018-09-23T09:39:00.279Z,6.06
2018-09-23T09:40:00.750Z,6.07
2018-09-23T09:41:01.222Z,6.08
2018-09-23T09:42:01.692Z,6.12
2018-09-23T09:43:02.163Z,6.13
2018-09-23T09:44:02.655Z,6.14
2018-09-23T09:45:03.105Z,6.13
2018-09-23T09:46:03.579Z,6.12
2018-09-23T09:47:04.054Z,6.10
2018-09-23T09:48:04.524Z,6.14
2018-09-23T09:49:04.995Z,6.13
2018-09-23T09:50:05.467Z,6.17
2018-09-23T09:51:05.942Z,6.15
2018-09-23T09:52:06.416Z,6.15
2018-09-23T09:53:06.885Z,6.13
2018-09-23T09:54:07.361Z,6.14
2018-09-23T09:55:07.834Z,6.15
2018-09-23T09:56:08.309Z,6.12
2018-09-23T09:57:08.783Z,6.11
2018-09-23T09:58:09.253Z,6.12
2018-09-23T09:59:09.728Z,6.14
2018-09-23T10:00:10.202Z,6.16
2018-09-23T10:01:10.675Z,6.15
2018-09-23T10:02:11.148Z,6.16
2018-09-23T10:03:11.624Z,6.20
2018-09-23T10:04:12.183Z,6.20
2018-09-23T10:05:12.570Z,6.22
2018-09-23T10:06:13.044Z,6.21
2018-09-23T10:07:13.522Z,6.23
2018-09-23T10:08:13.991Z,6.24
2018-09-23T10:09:14.465Z,6.24
2018-09-23T10:10:14.939Z,6.22
2018-09-23T10:11:15.411Z,6.21
2018-09-23T10:12:15.888Z,6.24
2018-09-23T10:13:16.358Z,6.26
2018-09-23T10:14:16.833Z,6.25
2018-09-23T10:15:17.307Z,6.26
2018-09-23T10:16:17.779Z,6.24
2018-09-23T10:17:18.250Z,6.24
2018-09-23T10:18:18.723Z,6.24
2018-09-23T10:19:19.198Z,6.30
2018-09-23T10:20:19.669Z,6.24
2018-09-23T10:21:20.150Z,6.33
2018-09-23T10:22:20.613Z,6.36
2018-09-23T10:23:21.176Z,6.37
2018-09-23T10:24:21.555Z,6.30
2018-09-23T10:25:22.029Z,6.28
2018-09-23T10:26:22.499Z,6.37
2018-09-23T10:27:22.970Z,6.33
2018-09-23T10:28:23.441Z,6.28
2018-09-23T10:29:23.913Z,6.29
2018-09-23T10:30:24.390Z,6.28
2018-09-23T10:31:24.968Z,6.30
2018-09-23T10:32:25.325Z,6.28
2018-09-23T10:33:25.792Z,6.25
2018-09-23T10:34:26.263Z,6.30
2018-09-23T10:35:26.735Z,6.30
2018-09-23T10:36:27.207Z,6.33
2018-09-23T10:37:27.674Z,6.29
2018-09-23T10:38:28.145Z,6.33
2018-09-23T10:39:28.617Z,6.33
2018-09-23T10:40:29.090Z,6.33
2018-09-23T10:41:29.554Z,6.34
2018-09-23T10:42:30.027Z,6.32
2018-09-23T10:43:30.497Z,6.34
2018-09-23T10:44:30.968Z,6.36
2018-09-23T10:45:31.438Z,6.37
2018-09-23T10:46:31.908Z,6.40
2018-09-23T10:47:32.581Z,6.40
2018-09-23T10:48:32.860Z,6.38
2018-09-23T10:49:33.322Z,6.44
2018-09-23T10:50:33.791Z,6.46
2018-09-23T10:51:34.263Z,6.46
2018-09-23T10:52:34.735Z,6.46
2018-09-23T10:53:35.207Z,6.47
2018-09-23T10:54:35.677Z,6.48
2018-09-23T10:55:36.202Z,6.52
2018-09-23T10:56:36.623Z,6.52
2018-09-23T10:57:37.096Z,6.52
2018-09-23T10:58:37.566Z,6.55
2018-09-23T10:59:38.045Z,6.58
2018-09-23T11:00:38.516Z,6.62
2018-09-23T11:01:38.984Z,6.58
2018-09-23T11:02:39.458Z,6.56
2018-09-23T11:03:39.942Z,6.60
2018-09-23T11:04:40.405Z,6.61
2018-09-23T11:05:40.881Z,6.62
2018-09-23T11:06:41.351Z,6.56
2018-09-23T11:07:41.826Z,6.60
2018-09-23T11:08:42.298Z,6.66
2018-09-23T11:09:42.786Z,6.71
2018-09-23T11:10:43.246Z,6.70
2018-09-23T11:11:43.724Z,6.72
2018-09-23T11:12:44.195Z,6.74
2018-09-23T11:13:44.669Z,6.77
2018-09-23T11:14:45.144Z,6.79
2018-09-23T11:15:45.617Z,6.88
2018-09-23T11:16:46.093Z,6.93
2018-09-23T11:17:46.564Z,7.02
2018-09-23T11:18:47.043Z,7.03
2018-09-23T11:19:47.512Z,7.10
2018-09-23T11:20:47.990Z,7.12
2018-09-23T11:21:48.461Z,7.16
2018-09-23T11:22:48.933Z,7.10
2018-09-23T11:23:49.406Z,7.06
2018-09-23T11:24:49.892Z,7.14
2018-09-23T11:25:50.353Z,7.17
2018-09-23T11:26:50.824Z,7.18
2018-09-23T11:27:51.299Z,7.20
2018-09-23T11:28:51.771Z,7.22
2018-09-23T11:29:52.241Z,7.26
2018-09-23T11:30:52.721Z,7.29
2018-09-23T11:31:53.187Z,7.26
2018-09-23T11:32:53.658Z,7.26
2018-09-23T11:33:54.129Z,7.31
2018-09-23T11:34:54.601Z,7.32
2018-09-23T11:35:55.074Z,7.31
2018-09-23T11:36:55.544Z,7.30
2018-09-23T11:37:56.015Z,7.36
2018-09-23T11:38:56.489Z,7.37
2018-09-23T11:39:56.970Z,7.42
2018-09-23T11:40:57.426Z,7.40
2018-09-23T11:41:57.900Z,7.38
2018-09-23T11:42:58.382Z,7.34
2018-09-23T11:43:58.838Z,7.27
2018-09-23T11:44:59.308Z,7.34
2018-09-23T11:45:59.780Z,7.48
2018-09-23T11:47:00.248Z,7.45
2018-09-23T11:48:00.722Z,7.57
2018-09-23T11:49:01.191Z,7.63
2018-09-23T11:50:01.661Z,7.62
2018-09-23T11:51:02.132Z,7.55
2018-09-23T11:52:02.604Z,7.48
2018-09-23T11:53:03.072Z,7.52
2018-09-23T11:54:03.541Z,7.56
2018-09-23T11:55:04.011Z,7.56
2018-09-23T11:56:04.484Z,7.67
2018-09-23T11:57:04.954Z,7.62
2018-09-23T11:58:05.425Z,7.56
2018-09-23T11:59:06.000Z,7.52
2018-09-23T12:00:06.367Z,7.54
2018-09-23T12:01:06.842Z,7.58
2018-09-23T12:02:07.356Z,7.61
2018-09-23T12:03:07.784Z,7.62
2018-09-23T12:04:08.251Z,7.74
2018-09-23T12:05:08.726Z,7.76
2018-09-23T12:06:09.196Z,7.81
2018-09-23T12:07:09.671Z,7.84
2018-09-23T12:08:10.140Z,7.90
2018-09-23T12:09:10.613Z,7.92
2018-09-23T12:10:11.127Z,7.86
2018-09-23T12:11:11.559Z,7.84
2018-09-23T12:12:12.035Z,7.76
2018-09-23T12:13:12.507Z,7.72
2018-09-23T12:14:12.978Z,7.71
2018-09-23T12:15:13.453Z,7.71
2018-09-23T12:16:13.927Z,7.76
2018-09-23T12:17:14.401Z,7.79
2018-09-23T12:18:14.874Z,7.90
2018-09-23T12:19:15.348Z,7.94
2018-09-23T12:20:15.822Z,7.90
2018-09-23T12:21:16.298Z,7.81
2018-09-23T12:22:16.770Z,7.87
2018-09-23T12:23:17.246Z,7.80
2018-09-23T12:24:17.719Z,7.84
2018-09-23T12:25:18.230Z,7.86
2018-09-23T12:26:18.669Z,7.81
2018-09-23T12:27:19.141Z,7.80
2018-09-23T12:28:19.620Z,7.86
2018-09-23T12:29:20.090Z,7.87
2018-09-23T12:30:20.565Z,7.93
2018-09-23T12:31:21.037Z,8.00
2018-09-23T12:32:21.511Z,8.09
2018-09-23T12:33:22.022Z,8.12
2018-09-23T12:34:22.458Z,8.04
2018-09-23T12:35:22.931Z,8.04
2018-09-23T12:36:23.404Z,8.20
2018-09-23T12:37:23.879Z,8.22
2018-09-23T12:38:24.351Z,8.22
2018-09-23T12:39:24.830Z,8.21
2018-09-23T12:40:25.297Z,8.30
2018-09-23T12:41:25.769Z,8.39
2018-09-23T12:42:26.240Z,8.48
2018-09-23T12:43:26.713Z,8.50
2018-09-23T12:44:27.185Z,8.40
2018-09-23T12:45:27.657Z,8.50
2018-09-23T12:46:28.128Z,8.47
2018-09-23T12:47:28.598Z,8.38
2018-09-23T12:48:29.071Z,8.44
2018-09-23T12:49:29.543Z,8.46
2018-09-23T12:50:30.013Z,8.41
2018-09-23T12:51:30.487Z,8.39
2018-09-23T12:52:30.954Z,8.37
2018-09-23T12:53:31.427Z,8.35
2018-09-23T12:54:31.897Z,8.36
2018-09-23T12:55:32.367Z,8.38
2018-09-23T12:56:32.838Z,8.34
2018-09-23T12:57:33.308Z,8.38
2018-09-23T12:58:33.782Z,8.64
2018-09-23T12:59:34.249Z,8.69
2018-09-23T13:00:34.718Z,8.66
2018-09-23T13:01:35.192Z,8.60
2018-09-23T13:02:35.705Z,8.52
2018-09-23T13:03:36.130Z,8.46
2018-09-23T13:04:36.600Z,8.42
2018-09-23T13:05:37.071Z,8.36
2018-09-23T13:06:37.541Z,8.30
2018-09-23T13:07:38.012Z,8.34
2018-09-23T13:08:38.483Z,8.30
2018-09-23T13:09:38.956Z,8.37
2018-09-23T13:10:39.425Z,8.44
2018-09-23T13:11:39.900Z,8.41
2018-09-23T13:12:40.373Z,8.40
2018-09-23T13:13:40.842Z,8.42
2018-09-23T13:14:41.340Z,8.51
2018-09-23T13:15:41.789Z,8.53
2018-09-23T13:16:42.260Z,8.52
2018-09-23T13:17:42.728Z,8.44
2018-09-23T13:18:43.214Z,8.42
2018-09-23T13:19:43.674Z,8.56
2018-09-23T13:20:44.146Z,8.62
2018-09-23T13:21:44.619Z,8.61
2018-09-23T13:22:45.091Z,8.63
2018-09-23T13:23:45.565Z,8.68
2018-09-23T13:24:46.038Z,8.66